sensor_id;sensor_type;location;lat;lon;timestamp;P1;durP1;ratioP1;P2;durP2;ratioP2
69369;SDS011;56530;42.640;23.372;2024-02-04T00:02:18;4.47;;;4.05;;
69369;SDS011;56530;42.640;23.372;2024-02-04T00:04:45;4.30;;;3.90;;
69369;SDS011;56530;42.640;23.372;2024-02-04T00:07:11;4.70;;;3.65;;
69369;SDS011;56530;42.640;23.372;2024-02-04T00:09:36;4.45;;;4.05;;
69369;SDS011;56530;42.640;23.372;2024-02-04T00:12:02;4.43;;;3.95;;
69369;SDS011;56530;42.640;23.372;2024-02-04T00:14:28;7.43;;;4.28;;
69369;SDS011;56530;42.640;23.372;2024-02-04T00:16:54;4.68;;;4.22;;
69369;SDS011;56530;42.640;23.372;2024-02-04T00:19:19;7.20;;;4.47;;
69369;SDS011;56530;42.640;23.372;2024-02-04T00:21:45;5.43;;;4.18;;
69369;SDS011;56530;42.640;23.372;2024-02-04T00:24:10;4.32;;;4.03;;
69369;SDS011;56530;42.640;23.372;2024-02-04T00:26:36;6.57;;;4.57;;
69369;SDS011;56530;42.640;23.372;2024-02-04T00:29:01;4.25;;;3.83;;
69369;SDS011;56530;42.640;23.372;2024-02-04T00:31:26;5.85;;;4.43;;
69369;SDS011;56530;42.640;23.372;2024-02-04T00:33:52;3.90;;;3.60;;
69369;SDS011;56530;42.640;23.372;2024-02-04T00:36:17;5.57;;;3.78;;
69369;SDS011;56530;42.640;23.372;2024-02-04T00:38:44;6.05;;;3.95;;
69369;SDS011;56530;42.640;23.372;2024-02-04T00:41:09;4.97;;;4.47;;
69369;SDS011;56530;42.640;23.372;2024-02-04T00:43:36;5.28;;;4.00;;
69369;SDS011;56530;42.640;23.372;2024-02-04T00:46:01;4.57;;;4.18;;
69369;SDS011;56530;42.640;23.372;2024-02-04T00:48:27;5.80;;;4.15;;
69369;SDS011;56530;42.640;23.372;2024-02-04T00:50:53;7.13;;;3.88;;
69369;SDS011;56530;42.640;23.372;2024-02-04T00:53:18;4.60;;;4.20;;
69369;SDS011;56530;42.640;23.372;2024-02-04T00:55:44;4.37;;;3.87;;
69369;SDS011;56530;42.640;23.372;2024-02-04T00:58:09;4.20;;;3.78;;
69369;SDS011;56530;42.640;23.372;2024-02-04T01:00:34;3.72;;;3.42;;
69369;SDS011;56530;42.640;23.372;2024-02-04T01:03:00;5.07;;;3.50;;
69369;SDS011;56530;42.640;23.372;2024-02-04T01:05:25;4.45;;;3.65;;
69369;SDS011;56530;42.640;23.372;2024-02-04T01:07:51;3.85;;;3.50;;
69369;SDS011;56530;42.640;23.372;2024-02-04T01:10:16;3.50;;;3.20;;
69369;SDS011;56530;42.640;23.372;2024-02-04T01:12:41;4.35;;;3.95;;
69369;SDS011;56530;42.640;23.372;2024-02-04T01:15:07;4.45;;;4.05;;
69369;SDS011;56530;42.640;23.372;2024-02-04T01:17:33;4.05;;;3.60;;
69369;SDS011;56530;42.640;23.372;2024-02-04T01:19:59;4.85;;;3.65;;
69369;SDS011;56530;42.640;23.372;2024-02-04T01:22:24;4.40;;;3.70;;
69369;SDS011;56530;42.640;23.372;2024-02-04T01:24:52;3.58;;;3.28;;
69369;SDS011;56530;42.640;23.372;2024-02-04T01:27:17;4.43;;;3.58;;
69369;SDS011;56530;42.640;23.372;2024-02-04T01:29:43;3.45;;;3.15;;
69369;SDS011;56530;42.640;23.372;2024-02-04T01:32:08;5.05;;;3.55;;
69369;SDS011;56530;42.640;23.372;2024-02-04T01:34:33;4.80;;;3.55;;
69369;SDS011;56530;42.640;23.372;2024-02-04T01:36:59;4.43;;;3.35;;
69369;SDS011;56530;42.640;23.372;2024-02-04T01:39:24;4.13;;;3.72;;
69369;SDS011;56530;42.640;23.372;2024-02-04T01:41:50;3.83;;;3.40;;
69369;SDS011;56530;42.640;23.372;2024-02-04T01:44:15;3.35;;;3.05;;
69369;SDS011;56530;42.640;23.372;2024-02-04T01:46:41;3.92;;;3.42;;
69369;SDS011;56530;42.640;23.372;2024-02-04T01:49:07;3.83;;;3.45;;
69369;SDS011;56530;42.640;23.372;2024-02-04T01:51:33;3.42;;;3.20;;
69369;SDS011;56530;42.640;23.372;2024-02-04T01:53:59;4.95;;;3.72;;
69369;SDS011;56530;42.640;23.372;2024-02-04T01:56:24;4.18;;;3.10;;
69369;SDS011;56530;42.640;23.372;2024-02-04T01:58:50;4.15;;;2.90;;
69369;SDS011;56530;42.640;23.372;2024-02-04T02:01:15;4.88;;;3.45;;
69369;SDS011;56530;42.640;23.372;2024-02-04T02:03:41;3.78;;;3.35;;
69369;SDS011;56530;42.640;23.372;2024-02-04T02:06:06;3.40;;;3.10;;
69369;SDS011;56530;42.640;23.372;2024-02-04T02:08:32;3.28;;;3.00;;
69369;SDS011;56530;42.640;23.372;2024-02-04T02:11:08;3.13;;;2.90;;
69369;SDS011;56530;42.640;23.372;2024-02-04T02:13:37;3.35;;;3.15;;
69369;SDS011;56530;42.640;23.372;2024-02-04T02:16:11;6.20;;;3.00;;
69369;SDS011;56530;42.640;23.372;2024-02-04T02:24:25;5.75;;;3.08;;
69369;SDS011;56530;42.640;23.372;2024-02-04T02:27:00;3.63;;;3.25;;
69369;SDS011;56530;42.640;23.372;2024-02-04T02:29:26;3.53;;;3.22;;
69369;SDS011;56530;42.640;23.372;2024-02-04T02:31:51;2.97;;;2.78;;
69369;SDS011;56530;42.640;23.372;2024-02-04T02:34:17;5.47;;;3.20;;
69369;SDS011;56530;42.640;23.372;2024-02-04T02:39:08;3.53;;;3.15;;
69369;SDS011;56530;42.640;23.372;2024-02-04T02:41:37;4.57;;;3.88;;
69369;SDS011;56530;42.640;23.372;2024-02-04T02:44:03;3.83;;;3.00;;
69369;SDS011;56530;42.640;23.372;2024-02-04T02:46:30;3.20;;;2.90;;
69369;SDS011;56530;42.640;23.372;2024-02-04T02:48:55;3.17;;;2.83;;
69369;SDS011;56530;42.640;23.372;2024-02-04T02:51:21;2.72;;;2.53;;
69369;SDS011;56530;42.640;23.372;2024-02-04T02:53:46;3.70;;;3.40;;
69369;SDS011;56530;42.640;23.372;2024-02-04T02:56:11;3.20;;;2.90;;
69369;SDS011;56530;42.640;23.372;2024-02-04T02:58:37;3.10;;;2.80;;
69369;SDS011;56530;42.640;23.372;2024-02-04T03:01:02;3.25;;;2.92;;
69369;SDS011;56530;42.640;23.372;2024-02-04T03:03:28;2.97;;;2.53;;
69369;SDS011;56530;42.640;23.372;2024-02-04T03:05:53;3.17;;;2.85;;
69369;SDS011;56530;42.640;23.372;2024-02-04T03:08:18;4.10;;;2.88;;
69369;SDS011;56530;42.640;23.372;2024-02-04T03:10:44;4.43;;;2.85;;
69369;SDS011;56530;42.640;23.372;2024-02-04T03:13:09;3.08;;;2.63;;
69369;SDS011;56530;42.640;23.372;2024-02-04T03:15:34;2.70;;;2.50;;
69369;SDS011;56530;42.640;23.372;2024-02-04T03:18:00;2.95;;;2.75;;
69369;SDS011;56530;42.640;23.372;2024-02-04T03:20:25;2.92;;;2.38;;
69369;SDS011;56530;42.640;23.372;2024-02-04T03:22:51;3.15;;;2.85;;
69369;SDS011;56530;42.640;23.372;2024-02-04T03:25:16;2.53;;;2.33;;
69369;SDS011;56530;42.640;23.372;2024-02-04T03:27:42;2.85;;;2.25;;
69369;SDS011;56530;42.640;23.372;2024-02-04T03:30:07;2.47;;;2.28;;
69369;SDS011;56530;42.640;23.372;2024-02-04T03:32:33;2.90;;;2.63;;
69369;SDS011;56530;42.640;23.372;2024-02-04T03:35:02;2.42;;;2.22;;
69369;SDS011;56530;42.640;23.372;2024-02-04T03:37:28;3.65;;;2.45;;
69369;SDS011;56530;42.640;23.372;2024-02-04T03:39:53;2.90;;;2.70;;
69369;SDS011;56530;42.640;23.372;2024-02-04T03:42:19;2.47;;;2.38;;
69369;SDS011;56530;42.640;23.372;2024-02-04T03:44:46;2.63;;;2.42;;
69369;SDS011;56530;42.640;23.372;2024-02-04T03:47:12;2.83;;;2.42;;
69369;SDS011;56530;42.640;23.372;2024-02-04T03:49:37;2.85;;;2.13;;
69369;SDS011;56530;42.640;23.372;2024-02-04T03:52:03;2.08;;;1.95;;
69369;SDS011;56530;42.640;23.372;2024-02-04T03:54:28;2.30;;;2.20;;
69369;SDS011;56530;42.640;23.372;2024-02-04T03:56:54;2.42;;;2.22;;
69369;SDS011;56530;42.640;23.372;2024-02-04T03:59:19;1.98;;;1.80;;
69369;SDS011;56530;42.640;23.372;2024-02-04T04:01:48;1.90;;;1.80;;
69369;SDS011;56530;42.640;23.372;2024-02-04T04:04:21;2.17;;;1.98;;
69369;SDS011;56530;42.640;23.372;2024-02-04T04:06:46;1.80;;;1.70;;
69369;SDS011;56530;42.640;23.372;2024-02-04T04:09:12;2.78;;;2.03;;
69369;SDS011;56530;42.640;23.372;2024-02-04T04:11:37;2.40;;;2.20;;
69369;SDS011;56530;42.640;23.372;2024-02-04T04:14:03;2.75;;;2.15;;
69369;SDS011;56530;42.640;23.372;2024-02-04T04:16:28;3.47;;;2.08;;
69369;SDS011;56530;42.640;23.372;2024-02-04T04:18:53;2.40;;;2.20;;
69369;SDS011;56530;42.640;23.372;2024-02-04T04:21:19;2.22;;;2.00;;
69369;SDS011;56530;42.640;23.372;2024-02-04T04:23:45;2.88;;;2.55;;
69369;SDS011;56530;42.640;23.372;2024-02-04T04:26:10;2.17;;;2.00;;
69369;SDS011;56530;42.640;23.372;2024-02-04T04:28:36;2.17;;;2.03;;
69369;SDS011;56530;42.640;23.372;2024-02-04T04:31:01;2.40;;;2.20;;
69369;SDS011;56530;42.640;23.372;2024-02-04T04:33:26;2.65;;;1.90;;
69369;SDS011;56530;42.640;23.372;2024-02-04T04:35:52;2.92;;;2.47;;
69369;SDS011;56530;42.640;23.372;2024-02-04T04:38:17;2.63;;;2.42;;
69369;SDS011;56530;42.640;23.372;2024-02-04T04:40:42;2.78;;;2.53;;
69369;SDS011;56530;42.640;23.372;2024-02-04T04:43:08;2.28;;;2.17;;
69369;SDS011;56530;42.640;23.372;2024-02-04T04:45:33;3.10;;;2.13;;
69369;SDS011;56530;42.640;23.372;2024-02-04T04:47:59;1.95;;;1.85;;
69369;SDS011;56530;42.640;23.372;2024-02-04T04:50:24;1.67;;;1.58;;
69369;SDS011;56530;42.640;23.372;2024-02-04T04:52:50;2.03;;;1.92;;
69369;SDS011;56530;42.640;23.372;2024-02-04T04:55:15;2.25;;;2.15;;
69369;SDS011;56530;42.640;23.372;2024-02-04T04:57:40;2.35;;;2.15;;
69369;SDS011;56530;42.640;23.372;2024-02-04T05:00:06;2.08;;;1.98;;
69369;SDS011;56530;42.640;23.372;2024-02-04T05:02:34;2.22;;;2.03;;
69369;SDS011;56530;42.640;23.372;2024-02-04T05:05:03;2.28;;;2.10;;
69369;SDS011;56530;42.640;23.372;2024-02-04T05:07:28;2.92;;;2.38;;
69369;SDS011;56530;42.640;23.372;2024-02-04T05:09:54;2.65;;;2.45;;
69369;SDS011;56530;42.640;23.372;2024-02-04T05:12:19;3.03;;;2.50;;
69369;SDS011;56530;42.640;23.372;2024-02-04T05:14:44;2.45;;;2.25;;
69369;SDS011;56530;42.640;23.372;2024-02-04T05:17:10;2.50;;;2.30;;
69369;SDS011;56530;42.640;23.372;2024-02-04T05:19:35;2.90;;;2.30;;
69369;SDS011;56530;42.640;23.372;2024-02-04T05:22:01;2.55;;;2.38;;
69369;SDS011;56530;42.640;23.372;2024-02-04T05:24:27;2.50;;;2.08;;
69369;SDS011;56530;42.640;23.372;2024-02-04T05:26:52;2.80;;;2.50;;
69369;SDS011;56530;42.640;23.372;2024-02-04T05:29:17;2.72;;;2.50;;
69369;SDS011;56530;42.640;23.372;2024-02-04T05:31:43;2.88;;;2.67;;
69369;SDS011;56530;42.640;23.372;2024-02-04T05:34:09;3.03;;;2.58;;
69369;SDS011;56530;42.640;23.372;2024-02-04T05:36:35;2.20;;;2.00;;
69369;SDS011;56530;42.640;23.372;2024-02-04T05:39:13;2.70;;;2.50;;
69369;SDS011;56530;42.640;23.372;2024-02-04T05:41:39;2.40;;;1.90;;
69369;SDS011;56530;42.640;23.372;2024-02-04T05:44:05;2.55;;;2.28;;
69369;SDS011;56530;42.640;23.372;2024-02-04T05:46:31;2.50;;;2.30;;
69369;SDS011;56530;42.640;23.372;2024-02-04T05:48:57;2.80;;;2.60;;
69369;SDS011;56530;42.640;23.372;2024-02-04T05:51:23;3.50;;;2.33;;
69369;SDS011;56530;42.640;23.372;2024-02-04T05:53:48;2.85;;;2.45;;
69369;SDS011;56530;42.640;23.372;2024-02-04T05:56:14;2.55;;;2.35;;
69369;SDS011;56530;42.640;23.372;2024-02-04T05:58:39;2.70;;;2.50;;
69369;SDS011;56530;42.640;23.372;2024-02-04T06:01:05;2.70;;;2.50;;
69369;SDS011;56530;42.640;23.372;2024-02-04T06:03:30;2.95;;;2.65;;
69369;SDS011;56530;42.640;23.372;2024-02-04T06:05:56;3.33;;;3.03;;
69369;SDS011;56530;42.640;23.372;2024-02-04T06:08:21;2.70;;;2.35;;
69369;SDS011;56530;42.640;23.372;2024-02-04T06:10:47;3.40;;;2.85;;
69369;SDS011;56530;42.640;23.372;2024-02-04T06:13:12;3.45;;;3.15;;
69369;SDS011;56530;42.640;23.372;2024-02-04T06:15:37;4.97;;;3.25;;
69369;SDS011;56530;42.640;23.372;2024-02-04T06:18:03;3.67;;;3.20;;
69369;SDS011;56530;42.640;23.372;2024-02-04T06:20:28;3.45;;;2.63;;
69369;SDS011;56530;42.640;23.372;2024-02-04T06:22:54;2.83;;;2.63;;
69369;SDS011;56530;42.640;23.372;2024-02-04T06:25:19;3.13;;;2.90;;
69369;SDS011;56530;42.640;23.372;2024-02-04T06:27:45;5.55;;;3.30;;
69369;SDS011;56530;42.640;23.372;2024-02-04T06:30:10;4.53;;;3.38;;
69369;SDS011;56530;42.640;23.372;2024-02-04T06:32:36;3.67;;;3.22;;
69369;SDS011;56530;42.640;23.372;2024-02-04T06:35:01;3.80;;;2.75;;
69369;SDS011;56530;42.640;23.372;2024-02-04T06:37:27;3.35;;;3.00;;
69369;SDS011;56530;42.640;23.372;2024-02-04T06:39:53;3.50;;;3.13;;
69369;SDS011;56530;42.640;23.372;2024-02-04T06:42:18;3.95;;;2.95;;
69369;SDS011;56530;42.640;23.372;2024-02-04T06:44:44;4.60;;;2.80;;
69369;SDS011;56530;42.640;23.372;2024-02-04T06:47:10;3.60;;;3.22;;
69369;SDS011;56530;42.640;23.372;2024-02-04T06:49:37;2.80;;;2.60;;
69369;SDS011;56530;42.640;23.372;2024-02-04T06:52:03;2.90;;;2.70;;
69369;SDS011;56530;42.640;23.372;2024-02-04T06:54:30;4.68;;;3.05;;
69369;SDS011;56530;42.640;23.372;2024-02-04T06:56:55;5.10;;;3.35;;
69369;SDS011;56530;42.640;23.372;2024-02-04T06:59:21;3.72;;;3.38;;
69369;SDS011;56530;42.640;23.372;2024-02-04T07:01:46;4.55;;;3.35;;
69369;SDS011;56530;42.640;23.372;2024-02-04T07:04:12;3.10;;;2.70;;
69369;SDS011;56530;42.640;23.372;2024-02-04T07:06:37;5.05;;;2.70;;
69369;SDS011;56530;42.640;23.372;2024-02-04T07:09:03;3.05;;;2.78;;
69369;SDS011;56530;42.640;23.372;2024-02-04T07:11:28;2.80;;;2.60;;
69369;SDS011;56530;42.640;23.372;2024-02-04T07:13:54;2.63;;;2.42;;
69369;SDS011;56530;42.640;23.372;2024-02-04T07:16:27;2.75;;;2.55;;
69369;SDS011;56530;42.640;23.372;2024-02-04T07:18:52;2.80;;;2.60;;
69369;SDS011;56530;42.640;23.372;2024-02-04T07:21:19;3.33;;;2.75;;
69369;SDS011;56530;42.640;23.372;2024-02-04T07:23:44;3.75;;;2.60;;
69369;SDS011;56530;42.640;23.372;2024-02-04T07:26:09;2.75;;;2.50;;
69369;SDS011;56530;42.640;23.372;2024-02-04T07:28:35;3.13;;;2.83;;
69369;SDS011;56530;42.640;23.372;2024-02-04T07:31:00;2.60;;;2.40;;
69369;SDS011;56530;42.640;23.372;2024-02-04T07:33:25;3.00;;;2.70;;
69369;SDS011;56530;42.640;23.372;2024-02-04T07:35:51;4.45;;;2.67;;
69369;SDS011;56530;42.640;23.372;2024-02-04T07:38:16;3.33;;;3.03;;
69369;SDS011;56530;42.640;23.372;2024-02-04T07:40:42;3.45;;;2.85;;
69369;SDS011;56530;42.640;23.372;2024-02-04T07:43:07;4.28;;;3.28;;
69369;SDS011;56530;42.640;23.372;2024-02-04T07:45:34;3.65;;;2.92;;
69369;SDS011;56530;42.640;23.372;2024-02-04T07:47:59;7.38;;;2.42;;
69369;SDS011;56530;42.640;23.372;2024-02-04T07:50:25;2.97;;;2.78;;
69369;SDS011;56530;42.640;23.372;2024-02-04T07:52:51;4.30;;;2.47;;
69369;SDS011;56530;42.640;23.372;2024-02-04T07:55:16;3.35;;;2.67;;
69369;SDS011;56530;42.640;23.372;2024-02-04T07:57:42;3.90;;;2.40;;
69369;SDS011;56530;42.640;23.372;2024-02-04T08:00:07;3.95;;;2.92;;
69369;SDS011;56530;42.640;23.372;2024-02-04T08:02:35;4.82;;;3.67;;
69369;SDS011;56530;42.640;23.372;2024-02-04T08:05:02;4.32;;;3.40;;
69369;SDS011;56530;42.640;23.372;2024-02-04T08:07:27;3.60;;;2.78;;
69369;SDS011;56530;42.640;23.372;2024-02-04T08:09:53;3.35;;;2.42;;
69369;SDS011;56530;42.640;23.372;2024-02-04T08:12:18;2.60;;;2.40;;
69369;SDS011;56530;42.640;23.372;2024-02-04T08:14:44;5.63;;;2.58;;
69369;SDS011;56530;42.640;23.372;2024-02-04T08:17:09;4.85;;;2.50;;
69369;SDS011;56530;42.640;23.372;2024-02-04T08:19:34;2.80;;;2.50;;
69369;SDS011;56530;42.640;23.372;2024-02-04T08:22:00;4.43;;;2.40;;
69369;SDS011;56530;42.640;23.372;2024-02-04T08:24:26;2.70;;;2.22;;
69369;SDS011;56530;42.640;23.372;2024-02-04T08:26:51;3.83;;;1.92;;
69369;SDS011;56530;42.640;23.372;2024-02-04T08:29:16;2.33;;;2.13;;
69369;SDS011;56530;42.640;23.372;2024-02-04T08:31:42;3.97;;;2.38;;
69369;SDS011;56530;42.640;23.372;2024-02-04T08:34:07;2.05;;;1.85;;
69369;SDS011;56530;42.640;23.372;2024-02-04T08:36:32;4.63;;;2.70;;
69369;SDS011;56530;42.640;23.372;2024-02-04T08:38:58;3.50;;;2.60;;
69369;SDS011;56530;42.640;23.372;2024-02-04T08:41:23;4.47;;;2.75;;
69369;SDS011;56530;42.640;23.372;2024-02-04T08:43:49;3.70;;;2.42;;
69369;SDS011;56530;42.640;23.372;2024-02-04T08:46:14;3.95;;;2.70;;
69369;SDS011;56530;42.640;23.372;2024-02-04T08:48:41;3.53;;;2.80;;
69369;SDS011;56530;42.640;23.372;2024-02-04T08:51:10;4.00;;;2.33;;
69369;SDS011;56530;42.640;23.372;2024-02-04T08:53:37;5.10;;;2.15;;
69369;SDS011;56530;42.640;23.372;2024-02-04T08:56:03;11.02;;;2.75;;
69369;SDS011;56530;42.640;23.372;2024-02-04T08:58:29;3.50;;;1.70;;
69369;SDS011;56530;42.640;23.372;2024-02-04T09:00:54;2.28;;;2.08;;
69369;SDS011;56530;42.640;23.372;2024-02-04T09:03:20;3.38;;;1.70;;
69369;SDS011;56530;42.640;23.372;2024-02-04T09:05:45;4.32;;;1.90;;
69369;SDS011;56530;42.640;23.372;2024-02-04T09:08:10;2.13;;;1.92;;
69369;SDS011;56530;42.640;23.372;2024-02-04T09:10:36;3.28;;;1.70;;
69369;SDS011;56530;42.640;23.372;2024-02-04T09:13:01;2.80;;;2.05;;
69369;SDS011;56530;42.640;23.372;2024-02-04T09:15:27;7.65;;;2.22;;
69369;SDS011;56530;42.640;23.372;2024-02-04T09:17:52;6.40;;;1.88;;
69369;SDS011;56530;42.640;23.372;2024-02-04T09:20:18;4.20;;;1.90;;
69369;SDS011;56530;42.640;23.372;2024-02-04T09:22:43;2.60;;;1.92;;
69369;SDS011;56530;42.640;23.372;2024-02-04T09:25:08;6.95;;;2.45;;
69369;SDS011;56530;42.640;23.372;2024-02-04T09:27:34;4.55;;;2.50;;
69369;SDS011;56530;42.640;23.372;2024-02-04T09:29:59;2.15;;;1.95;;
69369;SDS011;56530;42.640;23.372;2024-02-04T09:32:25;3.05;;;2.22;;
69369;SDS011;56530;42.640;23.372;2024-02-04T09:34:50;1.92;;;1.83;;
69369;SDS011;56530;42.640;23.372;2024-02-04T09:37:15;8.38;;;2.50;;
69369;SDS011;56530;42.640;23.372;2024-02-04T09:39:41;6.55;;;3.20;;
69369;SDS011;56530;42.640;23.372;2024-02-04T09:42:06;4.70;;;3.10;;
69369;SDS011;56530;42.640;23.372;2024-02-04T09:44:32;5.57;;;2.10;;
69369;SDS011;56530;42.640;23.372;2024-02-04T09:46:58;4.88;;;2.97;;
69369;SDS011;56530;42.640;23.372;2024-02-04T09:49:26;7.85;;;2.70;;
69369;SDS011;56530;42.640;23.372;2024-02-04T09:51:52;5.13;;;2.35;;
69369;SDS011;56530;42.640;23.372;2024-02-04T09:54:17;3.05;;;2.03;;
69369;SDS011;56530;42.640;23.372;2024-02-04T09:56:43;8.40;;;3.47;;
69369;SDS011;56530;42.640;23.372;2024-02-04T09:59:09;7.78;;;2.80;;
69369;SDS011;56530;42.640;23.372;2024-02-04T10:01:36;7.78;;;3.38;;
69369;SDS011;56530;42.640;23.372;2024-02-04T10:04:01;4.70;;;2.80;;
69369;SDS011;56530;42.640;23.372;2024-02-04T10:06:27;10.43;;;4.60;;
69369;SDS011;56530;42.640;23.372;2024-02-04T10:08:52;3.70;;;2.90;;
69369;SDS011;56530;42.640;23.372;2024-02-04T10:11:18;2.90;;;2.33;;
69369;SDS011;56530;42.640;23.372;2024-02-04T10:13:47;4.40;;;2.45;;
69369;SDS011;56530;42.640;23.372;2024-02-04T10:16:13;3.42;;;2.30;;
69369;SDS011;56530;42.640;23.372;2024-02-04T10:18:47;3.03;;;2.40;;
69369;SDS011;56530;42.640;23.372;2024-02-04T10:21:17;4.80;;;3.47;;
69369;SDS011;56530;42.640;23.372;2024-02-04T10:23:44;4.97;;;2.75;;
69369;SDS011;56530;42.640;23.372;2024-02-04T10:26:10;6.15;;;2.03;;
69369;SDS011;56530;42.640;23.372;2024-02-04T10:28:36;2.60;;;2.40;;
69369;SDS011;56530;42.640;23.372;2024-02-04T10:31:02;3.13;;;2.03;;
69369;SDS011;56530;42.640;23.372;2024-02-04T10:33:30;2.13;;;1.85;;
69369;SDS011;56530;42.640;23.372;2024-02-04T10:35:56;2.15;;;1.95;;
69369;SDS011;56530;42.640;23.372;2024-02-04T10:38:21;3.97;;;3.53;;
69369;SDS011;56530;42.640;23.372;2024-02-04T10:40:47;2.60;;;2.33;;
69369;SDS011;56530;42.640;23.372;2024-02-04T10:43:13;4.57;;;2.60;;
69369;SDS011;56530;42.640;23.372;2024-02-04T10:45:39;7.60;;;2.13;;
69369;SDS011;56530;42.640;23.372;2024-02-04T10:48:07;3.95;;;3.50;;
69369;SDS011;56530;42.640;23.372;2024-02-04T10:50:34;2.63;;;2.10;;
69369;SDS011;56530;42.640;23.372;2024-02-04T10:53:02;2.20;;;1.90;;
69369;SDS011;56530;42.640;23.372;2024-02-04T10:55:30;4.30;;;2.13;;
69369;SDS011;56530;42.640;23.372;2024-02-04T10:57:56;3.65;;;1.80;;
69369;SDS011;56530;42.640;23.372;2024-02-04T11:00:21;4.00;;;2.00;;
69369;SDS011;56530;42.640;23.372;2024-02-04T11:02:47;2.53;;;1.92;;
69369;SDS011;56530;42.640;23.372;2024-02-04T11:05:14;4.68;;;2.17;;
69369;SDS011;56530;42.640;23.372;2024-02-04T11:07:42;3.58;;;2.00;;
69369;SDS011;56530;42.640;23.372;2024-02-04T11:10:08;4.30;;;2.00;;
69369;SDS011;56530;42.640;23.372;2024-02-04T11:12:35;6.57;;;2.03;;
69369;SDS011;56530;42.640;23.372;2024-02-04T11:15:05;1.83;;;1.70;;
69369;SDS011;56530;42.640;23.372;2024-02-04T11:20:33;2.47;;;2.25;;
69369;SDS011;56530;42.640;23.372;2024-02-04T11:25:57;3.35;;;1.80;;
69369;SDS011;56530;42.640;23.372;2024-02-04T11:28:23;3.63;;;1.70;;
69369;SDS011;56530;42.640;23.372;2024-02-04T11:30:53;1.70;;;1.60;;
69369;SDS011;56530;42.640;23.372;2024-02-04T11:33:21;4.03;;;2.10;;
69369;SDS011;56530;42.640;23.372;2024-02-04T11:35:47;3.40;;;2.22;;
69369;SDS011;56530;42.640;23.372;2024-02-04T11:38:28;2.58;;;2.17;;
69369;SDS011;56530;42.640;23.372;2024-02-04T11:40:55;2.13;;;1.98;;
69369;SDS011;56530;42.640;23.372;2024-02-04T11:43:22;3.42;;;2.45;;
69369;SDS011;56530;42.640;23.372;2024-02-04T11:45:48;6.40;;;3.80;;
69369;SDS011;56530;42.640;23.372;2024-02-04T11:48:16;1.60;;;1.50;;
69369;SDS011;56530;42.640;23.372;2024-02-04T11:50:41;2.20;;;1.80;;
69369;SDS011;56530;42.640;23.372;2024-02-04T11:53:10;5.25;;;2.05;;
69369;SDS011;56530;42.640;23.372;2024-02-04T11:55:41;7.25;;;2.22;;
69369;SDS011;56530;42.640;23.372;2024-02-04T11:58:06;3.97;;;2.22;;
69369;SDS011;56530;42.640;23.372;2024-02-04T12:00:35;4.47;;;1.80;;
69369;SDS011;56530;42.640;23.372;2024-02-04T12:05:28;1.77;;;1.67;;
69369;SDS011;56530;42.640;23.372;2024-02-04T12:08:05;1.95;;;1.60;;
69369;SDS011;56530;42.640;23.372;2024-02-04T12:10:32;2.13;;;1.92;;
69369;SDS011;56530;42.640;23.372;2024-02-04T12:13:01;2.92;;;1.92;;
69369;SDS011;56530;42.640;23.372;2024-02-04T12:15:28;1.55;;;1.45;;
69369;SDS011;56530;42.640;23.372;2024-02-04T12:17:53;1.83;;;1.65;;
69369;SDS011;56530;42.640;23.372;2024-02-04T12:20:19;3.22;;;2.72;;
69369;SDS011;56530;42.640;23.372;2024-02-04T12:22:47;1.83;;;1.73;;
69369;SDS011;56530;42.640;23.372;2024-02-04T12:25:18;4.45;;;1.77;;
69369;SDS011;56530;42.640;23.372;2024-02-04T12:27:52;2.65;;;2.30;;
69369;SDS011;56530;42.640;23.372;2024-02-04T12:30:18;3.53;;;1.98;;
69369;SDS011;56530;42.640;23.372;2024-02-04T12:32:54;2.97;;;2.47;;
69369;SDS011;56530;42.640;23.372;2024-02-04T12:35:21;2.78;;;1.85;;
69369;SDS011;56530;42.640;23.372;2024-02-04T12:37:50;2.53;;;1.90;;
69369;SDS011;56530;42.640;23.372;2024-02-04T12:42:52;2.00;;;1.80;;
69369;SDS011;56530;42.640;23.372;2024-02-04T12:45:24;3.35;;;2.50;;
69369;SDS011;56530;42.640;23.372;2024-02-04T12:47:57;1.98;;;1.75;;
69369;SDS011;56530;42.640;23.372;2024-02-04T12:50:23;1.65;;;1.55;;
69369;SDS011;56530;42.640;23.372;2024-02-04T12:52:50;1.83;;;1.58;;
69369;SDS011;56530;42.640;23.372;2024-02-04T12:55:27;2.75;;;1.77;;
69369;SDS011;56530;42.640;23.372;2024-02-04T13:00:33;1.92;;;1.77;;
69369;SDS011;56530;42.640;23.372;2024-02-04T13:02:59;1.95;;;1.67;;
69369;SDS011;56530;42.640;23.372;2024-02-04T13:05:25;3.70;;;1.70;;
69369;SDS011;56530;42.640;23.372;2024-02-04T13:07:51;3.45;;;2.17;;
69369;SDS011;56530;42.640;23.372;2024-02-04T13:10:20;1.83;;;1.50;;
69369;SDS011;56530;42.640;23.372;2024-02-04T13:12:57;3.55;;;2.28;;
69369;SDS011;56530;42.640;23.372;2024-02-04T13:15:33;2.08;;;1.98;;
69369;SDS011;56530;42.640;23.372;2024-02-04T13:18:01;3.53;;;2.35;;
69369;SDS011;56530;42.640;23.372;2024-02-04T13:20:27;3.22;;;1.75;;
69369;SDS011;56530;42.640;23.372;2024-02-04T13:22:52;3.00;;;1.85;;
69369;SDS011;56530;42.640;23.372;2024-02-04T13:25:21;3.13;;;1.92;;
69369;SDS011;56530;42.640;23.372;2024-02-04T13:27:49;5.53;;;3.15;;
69369;SDS011;56530;42.640;23.372;2024-02-04T13:30:16;2.45;;;2.13;;
69369;SDS011;56530;42.640;23.372;2024-02-04T13:32:42;3.40;;;2.55;;
69369;SDS011;56530;42.640;23.372;2024-02-04T13:35:08;3.78;;;2.60;;
69369;SDS011;56530;42.640;23.372;2024-02-04T13:37:35;3.20;;;2.65;;
69369;SDS011;56530;42.640;23.372;2024-02-04T13:40:02;3.08;;;2.63;;
69369;SDS011;56530;42.640;23.372;2024-02-04T13:42:28;2.85;;;2.15;;
69369;SDS011;56530;42.640;23.372;2024-02-04T13:44:54;2.78;;;2.50;;
69369;SDS011;56530;42.640;23.372;2024-02-04T13:47:19;4.60;;;2.42;;
69369;SDS011;56530;42.640;23.372;2024-02-04T13:49:46;2.50;;;2.30;;
69369;SDS011;56530;42.640;23.372;2024-02-04T13:52:11;3.70;;;2.40;;
69369;SDS011;56530;42.640;23.372;2024-02-04T13:54:37;4.95;;;2.20;;
69369;SDS011;56530;42.640;23.372;2024-02-04T13:57:02;3.15;;;2.75;;
69369;SDS011;56530;42.640;23.372;2024-02-04T13:59:28;2.17;;;1.98;;
69369;SDS011;56530;42.640;23.372;2024-02-04T14:01:53;5.63;;;2.80;;
69369;SDS011;56530;42.640;23.372;2024-02-04T14:04:18;4.03;;;2.30;;
69369;SDS011;56530;42.640;23.372;2024-02-04T14:06:44;2.63;;;2.42;;
69369;SDS011;56530;42.640;23.372;2024-02-04T14:09:09;6.25;;;2.55;;
69369;SDS011;56530;42.640;23.372;2024-02-04T14:11:37;2.88;;;2.20;;
69369;SDS011;56530;42.640;23.372;2024-02-04T14:14:03;2.42;;;2.17;;
69369;SDS011;56530;42.640;23.372;2024-02-04T14:16:28;5.38;;;2.78;;
69369;SDS011;56530;42.640;23.372;2024-02-04T14:18:54;2.20;;;1.95;;
69369;SDS011;56530;42.640;23.372;2024-02-04T14:21:20;7.32;;;2.55;;
69369;SDS011;56530;42.640;23.372;2024-02-04T14:23:45;2.72;;;2.13;;
69369;SDS011;56530;42.640;23.372;2024-02-04T14:26:17;4.60;;;3.75;;
69369;SDS011;56530;42.640;23.372;2024-02-04T14:28:43;2.45;;;1.95;;
69369;SDS011;56530;42.640;23.372;2024-02-04T14:31:08;2.20;;;1.92;;
69369;SDS011;56530;42.640;23.372;2024-02-04T14:33:34;2.65;;;2.45;;
69369;SDS011;56530;42.640;23.372;2024-02-04T14:35:59;2.33;;;2.13;;
69369;SDS011;56530;42.640;23.372;2024-02-04T14:38:28;8.10;;;3.30;;
69369;SDS011;56530;42.640;23.372;2024-02-04T14:40:56;2.60;;;2.08;;
69369;SDS011;56530;42.640;23.372;2024-02-04T14:43:21;2.42;;;2.25;;
69369;SDS011;56530;42.640;23.372;2024-02-04T14:45:48;3.72;;;2.42;;
69369;SDS011;56530;42.640;23.372;2024-02-04T14:48:13;4.18;;;2.75;;
69369;SDS011;56530;42.640;23.372;2024-02-04T14:50:39;3.47;;;2.80;;